createdAt,value
2022-08-19T00:05:58.939Z,99.9
2022-08-19T00:15:59.030Z,99.9
2022-08-19T00:18:29.061Z,99.9
2022-08-19T00:23:29.103Z,99.9
2022-08-19T00:25:59.125Z,99.9
2022-08-19T00:28:29.161Z,99.9
2022-08-19T00:30:59.186Z,99.9
2022-08-19T00:33:29.196Z,99.9
2022-08-19T00:35:59.241Z,99.9
2022-08-19T00:38:37.144Z,99.9
2022-08-19T00:43:29.306Z,99.9
2022-08-19T00:45:59.324Z,99.9
2022-08-19T00:48:29.354Z,99.9
2022-08-19T00:50:59.365Z,99.9
2022-08-19T00:58:29.468Z,99.9
2022-08-19T01:03:29.504Z,99.9
2022-08-19T01:05:59.537Z,99.9
2022-08-19T01:10:59.588Z,99.9
2022-08-19T01:13:29.582Z,99.9
2022-08-19T01:15:59.643Z,99.9
2022-08-19T01:18:29.650Z,99.9
2022-08-19T01:20:59.650Z,99.9
2022-08-19T01:23:29.672Z,99.9
2022-08-19T01:25:59.722Z,99.9
2022-08-19T01:28:34.149Z,99.9
2022-08-19T01:33:29.768Z,99.9
2022-08-19T01:35:59.807Z,99.9
2022-08-19T01:38:29.824Z,99.9
2022-08-19T01:40:59.862Z,99.9
2022-08-19T01:45:59.908Z,99.9
2022-08-19T01:48:29.911Z,99.9
2022-08-19T01:50:59.985Z,99.9
2022-08-19T01:53:33.589Z,99.9
2022-08-19T01:55:59.987Z,99.9
2022-08-19T01:58:30.017Z,99.9
2022-08-19T02:01:00.135Z,99.9
2022-08-19T02:08:30.123Z,99.9
2022-08-19T02:13:30.321Z,99.9
2022-08-19T02:18:30.204Z,99.9
2022-08-19T02:21:00.236Z,99.9
2022-08-19T02:23:30.252Z,99.9
2022-08-19T02:26:00.260Z,99.9
2022-08-19T02:31:00.365Z,99.9
2022-08-19T02:33:30.340Z,99.9
2022-08-19T02:36:00.375Z,99.9
2022-08-19T02:38:30.394Z,99.9
2022-08-19T02:46:00.462Z,99.9
2022-08-19T02:48:30.503Z,99.9
2022-08-19T02:51:00.504Z,99.9
2022-08-19T02:53:30.529Z,99.9
2022-08-19T02:58:30.598Z,99.9
2022-08-19T03:01:01.100Z,99.9
2022-08-19T03:03:30.638Z,99.9
2022-08-19T03:06:00.658Z,99.9
2022-08-19T03:11:00.700Z,99.9
2022-08-19T03:13:30.732Z,99.9
2022-08-19T03:16:00.755Z,99.9
2022-08-19T03:21:00.824Z,99.9
2022-08-19T03:23:30.826Z,99.9
2022-08-19T03:26:05.614Z,99.9
2022-08-19T03:28:30.862Z,99.9
2022-08-19T03:33:30.944Z,99.9
2022-08-19T03:36:00.933Z,99.9
2022-08-19T03:38:30.957Z,99.9
2022-08-19T03:41:00.986Z,99.9
2022-08-19T03:46:01.038Z,99.9
2022-08-19T03:48:31.055Z,99.9
2022-08-19T03:51:01.086Z,99.9
2022-08-19T03:58:31.150Z,99.9
2022-08-19T04:01:01.202Z,99.9
2022-08-19T04:03:31.204Z,99.9
2022-08-19T04:06:01.229Z,99.9
2022-08-19T04:08:31.261Z,99.9
2022-08-19T04:11:01.268Z,99.9
2022-08-19T04:18:34.735Z,99.9
2022-08-19T04:21:01.359Z,99.9
2022-08-19T04:23:31.375Z,99.9
2022-08-19T04:26:01.405Z,99.9
2022-08-19T04:28:31.462Z,99.9
2022-08-19T04:31:01.457Z,99.9
2022-08-19T04:33:31.471Z,99.9
2022-08-19T04:41:01.546Z,99.9
2022-08-19T04:43:31.573Z,99.9
2022-08-19T04:46:01.598Z,99.9
2022-08-19T04:48:31.610Z,99.9
2022-08-19T04:51:01.644Z,99.9
2022-08-19T04:53:37.829Z,99.9
2022-08-19T05:01:01.796Z,99.9
2022-08-19T05:03:31.752Z,99.9
2022-08-19T05:06:01.785Z,99.9
2022-08-19T05:08:31.856Z,99.9
2022-08-19T05:11:01.820Z,99.9
2022-08-19T05:13:31.846Z,99.9
2022-08-19T05:16:01.878Z,99.9
2022-08-19T05:18:31.899Z,99.9
2022-08-19T05:21:01.911Z,99.9
2022-08-19T05:23:31.931Z,99.9
2022-08-19T05:26:02.010Z,99.9
2022-08-19T05:28:31.983Z,99.9
2022-08-19T05:33:32.035Z,99.9
2022-08-19T05:36:02.055Z,99.9
2022-08-19T05:38:32.089Z,99.9
2022-08-19T05:41:02.119Z,99.9
2022-08-19T05:43:32.134Z,99.9
2022-08-19T05:46:02.172Z,99.9
2022-08-19T05:48:32.172Z,99.9
2022-08-19T05:53:32.216Z,99.9
2022-08-19T05:56:02.259Z,99.9
2022-08-19T05:58:32.279Z,99.9
2022-08-19T06:03:32.331Z,99.9
2022-08-19T06:06:02.339Z,99.9
2022-08-19T06:08:34.627Z,99.9
2022-08-19T06:11:02.378Z,99.9
2022-08-19T06:16:02.448Z,99.9
2022-08-19T06:18:32.471Z,99.9
2022-08-19T06:23:32.528Z,99.9
2022-08-19T06:26:02.545Z,99.9
2022-08-19T06:28:32.558Z,99.9
2022-08-19T06:31:02.589Z,99.9
2022-08-19T06:33:32.594Z,99.9
2022-08-19T06:36:02.617Z,99.9
2022-08-19T06:43:32.693Z,99.9
2022-08-19T06:46:02.944Z,99.9
2022-08-19T06:48:35.546Z,99.9
2022-08-19T06:53:32.802Z,99.9
2022-08-19T06:56:02.816Z,99.9
2022-08-19T06:58:32.832Z,99.9
2022-08-19T07:01:05.705Z,99.9
2022-08-19T07:03:32.891Z,99.9
2022-08-19T07:08:33.001Z,99.9
2022-08-19T07:11:02.981Z,99.9
2022-08-19T07:18:33.056Z,99.9
2022-08-19T07:21:03.058Z,99.9
2022-08-19T07:28:33.127Z,99.9
2022-08-19T07:33:33.178Z,99.9
2022-08-19T07:36:03.184Z,99.9
2022-08-19T07:38:33.215Z,99.9
2022-08-19T07:43:34.918Z,99.9
2022-08-19T07:46:03.335Z,99.9
2022-08-19T07:48:33.312Z,99.9
2022-08-19T07:51:03.335Z,99.9
2022-08-19T07:53:36.729Z,99.9
2022-08-19T07:56:03.393Z,99.9
2022-08-19T08:01:03.426Z,99.9
2022-08-19T08:03:33.447Z,99.9
2022-08-19T08:08:33.514Z,99.9
2022-08-19T08:16:03.582Z,99.9
2022-08-19T08:18:33.582Z,99.9
2022-08-19T08:21:03.627Z,99.9
2022-08-19T08:28:33.694Z,99.9
2022-08-19T08:31:03.722Z,99.9
2022-08-19T08:33:35.261Z,99.9
2022-08-19T08:43:33.832Z,99.9
2022-08-19T08:46:03.879Z,99.9
2022-08-19T08:48:33.868Z,99.9
2022-08-19T08:51:03.907Z,99.9
2022-08-19T08:53:35.539Z,99.9
2022-08-19T08:56:03.946Z,99.9
2022-08-19T09:01:03.994Z,99.9
2022-08-19T09:03:34.023Z,99.9
2022-08-19T09:11:04.112Z,99.9
2022-08-19T09:13:37.202Z,99.9
2022-08-19T09:23:34.217Z,99.9
2022-08-19T09:26:04.233Z,99.9
2022-08-19T09:28:34.247Z,99.9
2022-08-19T09:33:34.311Z,99.9
2022-08-19T09:38:34.341Z,99.9
2022-08-19T09:41:04.400Z,99.9
2022-08-19T09:43:44.471Z,99.9
2022-08-19T09:46:04.426Z,99.9
2022-08-19T09:51:04.478Z,99.9
2022-08-19T09:53:34.509Z,99.9
2022-08-19T09:56:04.508Z,99.6
2022-08-19T10:01:04.587Z,99.2
2022-08-19T10:03:34.576Z,99.1
2022-08-19T10:06:04.622Z,99.1
2022-08-19T10:08:34.627Z,99
2022-08-19T10:13:34.673Z,99.3
2022-08-19T10:21:04.744Z,98.6
2022-08-19T10:23:35.573Z,98.7
2022-08-19T10:26:04.788Z,98
2022-08-19T10:28:34.814Z,96.1
2022-08-19T10:33:38.875Z,94.2
2022-08-19T10:36:04.884Z,93.8
2022-08-19T10:38:34.920Z,92.7
2022-08-19T10:41:04.943Z,92.3
2022-08-19T10:43:34.957Z,92.4
2022-08-19T10:46:04.977Z,92.1
2022-08-19T10:53:35.058Z,92.5
2022-08-19T10:56:05.074Z,92.7
2022-08-19T11:01:05.209Z,92.4
2022-08-19T11:03:35.150Z,92.8
2022-08-19T11:06:05.179Z,92.3
2022-08-19T11:08:35.223Z,92.1
2022-08-19T11:11:05.229Z,85.1
2022-08-19T11:13:35.545Z,86.2
2022-08-19T11:16:07.666Z,88.3
2022-08-19T11:18:35.306Z,89.5
2022-08-19T11:23:35.355Z,89.9
2022-08-19T11:26:05.384Z,89.9
2022-08-19T11:28:35.417Z,90
2022-08-19T11:31:05.411Z,89.8
2022-08-19T11:36:05.467Z,89.6
2022-08-19T11:38:35.482Z,90
2022-08-19T11:43:37.322Z,88.7
2022-08-19T11:48:35.591Z,87.8
2022-08-19T11:53:35.634Z,86
2022-08-19T11:58:35.657Z,80.8
2022-08-19T12:01:05.684Z,80.6
2022-08-19T12:03:35.776Z,79.9
2022-08-19T12:06:05.741Z,79.9
2022-08-19T12:11:05.782Z,79.69
2022-08-19T12:16:05.834Z,79.5
2022-08-19T12:18:35.866Z,79.19
2022-08-19T12:23:35.903Z,76
2022-08-19T12:26:05.919Z,73.69
2022-08-19T12:28:35.961Z,73.69
2022-08-19T12:33:36.002Z,70.6
2022-08-19T12:36:06.017Z,71.1
2022-08-19T12:38:36.047Z,71.9
2022-08-19T12:41:06.069Z,72.69
2022-08-19T12:43:36.090Z,73
2022-08-19T12:46:06.131Z,73.19
2022-08-19T12:48:36.184Z,72.1
2022-08-19T12:51:06.173Z,71.69
2022-08-19T12:53:39.338Z,70.1
2022-08-19T12:56:06.199Z,69.1
2022-08-19T12:58:36.238Z,69.1
2022-08-19T13:01:06.339Z,69.3
2022-08-19T13:03:40.324Z,69.1
2022-08-19T13:06:06.318Z,68.9
2022-08-19T13:08:36.337Z,69
2022-08-19T13:16:06.400Z,66.4
2022-08-19T13:18:36.426Z,65.5
2022-08-19T13:21:06.453Z,65.19
2022-08-19T13:26:06.490Z,63.4
2022-08-19T13:31:06.665Z,63.2
2022-08-19T13:33:36.574Z,63.1
2022-08-19T13:36:06.644Z,63.6
2022-08-19T13:38:36.624Z,64
2022-08-19T13:41:11.060Z,64.1
2022-08-19T13:46:06.705Z,65.1
2022-08-19T13:48:36.706Z,64.9
2022-08-19T13:51:06.736Z,64.8
2022-08-19T13:53:36.771Z,64.6
2022-08-19T13:58:36.808Z,70.69
2022-08-19T14:01:06.885Z,74.9
2022-08-19T14:03:36.862Z,79.69
2022-08-19T14:06:06.927Z,84.4
2022-08-19T14:08:36.898Z,88.2
2022-08-19T14:13:36.967Z,90.7
2022-08-19T14:18:37.006Z,97
2022-08-19T14:21:07.046Z,97.6
2022-08-19T14:23:37.098Z,98.4
2022-08-19T14:26:07.075Z,98.9
2022-08-19T14:28:37.092Z,99.2
2022-08-19T14:31:07.122Z,99.5
2022-08-19T14:33:37.146Z,99.6
2022-08-19T14:36:07.165Z,99.9
2022-08-19T14:38:37.205Z,99.9
2022-08-19T14:41:07.217Z,99.9
2022-08-19T14:48:37.300Z,99.9
2022-08-19T14:51:07.314Z,99.9
2022-08-19T14:53:37.334Z,99.9
2022-08-19T14:58:39.212Z,99.9
2022-08-19T15:01:07.423Z,99.9
2022-08-19T15:03:37.430Z,99.9
2022-08-19T15:06:07.477Z,99.9
2022-08-19T15:11:07.495Z,99.9
2022-08-19T15:13:37.539Z,99.9
2022-08-19T15:16:07.558Z,99.9
2022-08-19T15:18:37.574Z,99.9
2022-08-19T15:21:07.611Z,99.9
2022-08-19T15:23:37.635Z,99.9
2022-08-19T15:26:10.561Z,99.9
2022-08-19T15:28:37.678Z,99.9
2022-08-19T15:31:07.736Z,99.9
2022-08-19T15:33:37.725Z,99.9
2022-08-19T15:38:39.568Z,99.9
2022-08-19T15:41:07.808Z,99.9
2022-08-19T15:46:07.844Z,99.9
2022-08-19T15:48:37.877Z,99.9
2022-08-19T15:51:07.914Z,99.9
2022-08-19T15:53:37.925Z,99.9
2022-08-19T15:56:07.943Z,99.9
2022-08-19T16:03:40.231Z,99.9
2022-08-19T16:06:08.030Z,99.9
2022-08-19T16:08:49.004Z,99.9
2022-08-19T16:16:08.129Z,99.9
2022-08-19T16:18:38.142Z,99.9
2022-08-19T16:21:08.164Z,99.9
2022-08-19T16:23:38.193Z,99.9
2022-08-19T16:26:08.235Z,99.9
2022-08-19T16:28:38.232Z,99.9
2022-08-19T16:31:08.279Z,99.9
2022-08-19T16:36:08.715Z,99.9
2022-08-19T16:38:38.493Z,99.9
2022-08-19T16:41:08.381Z,99.9
2022-08-19T16:43:38.398Z,99.9
2022-08-19T16:48:38.444Z,99.9
2022-08-19T16:51:08.470Z,99.9
2022-08-19T16:53:38.489Z,99.2
2022-08-19T16:56:08.511Z,99.3
2022-08-19T17:01:08.602Z,99.3
2022-08-19T17:03:38.591Z,99.3
2022-08-19T17:06:15.920Z,99.4
2022-08-19T17:08:38.619Z,99.9
2022-08-19T17:11:18.150Z,99.9
2022-08-19T17:16:08.717Z,99.9
2022-08-19T17:18:38.714Z,99.9
2022-08-19T17:23:42.873Z,99.9
2022-08-19T17:28:38.829Z,99.9
2022-08-19T17:31:08.870Z,99.9
2022-08-19T17:33:41.005Z,99.9
2022-08-19T17:36:08.908Z,99.9
2022-08-19T17:38:38.907Z,99.9
2022-08-19T17:41:08.934Z,99.9
2022-08-19T17:43:42.754Z,99.9
2022-08-19T17:46:11.076Z,99.9
2022-08-19T17:48:39.017Z,99.9
2022-08-19T17:53:39.054Z,99.9
2022-08-19T17:58:39.107Z,99.9
2022-08-19T18:03:39.150Z,99.9
2022-08-19T18:06:09.187Z,99.9
2022-08-19T18:08:39.234Z,99.9
2022-08-19T18:11:09.222Z,99.9
2022-08-19T18:16:09.280Z,99.9
2022-08-19T18:23:41.282Z,99.9
2022-08-19T18:26:09.369Z,99.9
2022-08-19T18:28:39.403Z,99.9
2022-08-19T18:31:09.422Z,99.9
2022-08-19T18:36:09.501Z,99.9
2022-08-19T18:38:39.489Z,99.9
2022-08-19T18:41:09.518Z,99.9
2022-08-19T18:43:39.527Z,99.9
2022-08-19T18:46:09.556Z,99.9
2022-08-19T18:48:39.593Z,99.9
2022-08-19T18:51:09.602Z,99.9
2022-08-19T18:53:39.621Z,99.9
2022-08-19T18:56:09.647Z,99.9
2022-08-19T19:01:09.754Z,99.9
2022-08-19T19:03:39.719Z,99.9
2022-08-19T19:08:39.763Z,99.9
2022-08-19T19:13:39.832Z,99.9
2022-08-19T19:18:39.876Z,99.9
2022-08-19T19:23:39.906Z,99.9
2022-08-19T19:26:10.304Z,99.9
2022-08-19T19:28:39.953Z,99.9
2022-08-19T19:31:09.990Z,99.9
2022-08-19T19:41:10.114Z,99.9
2022-08-19T19:43:41.097Z,99.9
2022-08-19T19:46:10.177Z,99.9
2022-08-19T19:48:40.159Z,99.9
2022-08-19T19:53:40.208Z,99.9
2022-08-19T19:56:10.255Z,99.9
2022-08-19T20:08:40.338Z,99.9
2022-08-19T20:11:10.359Z,99.9
2022-08-19T20:16:10.406Z,99.9
2022-08-19T20:18:40.439Z,99.9
2022-08-19T20:23:40.488Z,99.9
2022-08-19T20:26:15.654Z,99.9
2022-08-19T20:31:10.956Z,99.9
2022-08-19T20:38:40.619Z,99.9
2022-08-19T20:41:10.660Z,99.9
2022-08-19T20:51:10.750Z,99.9
2022-08-19T20:53:40.779Z,99.9
2022-08-19T20:56:10.778Z,99.9
2022-08-19T21:03:43.321Z,99.9
2022-08-19T21:06:10.871Z,99.9
2022-08-19T21:08:40.925Z,99.9
2022-08-19T21:13:40.960Z,99.9
2022-08-19T21:16:10.982Z,99.9
2022-08-19T21:18:41.008Z,99.9
2022-08-19T21:21:11.019Z,99.9
2022-08-19T21:23:41.044Z,99.9
2022-08-19T21:26:11.068Z,99.9
2022-08-19T21:28:41.087Z,99.9
2022-08-19T21:31:11.131Z,99.9
2022-08-19T21:33:41.153Z,99.9
2022-08-19T21:36:11.168Z,99.9
2022-08-19T21:38:41.188Z,99.9
2022-08-19T21:41:11.206Z,99.9
2022-08-19T21:48:41.288Z,99.9
2022-08-19T21:51:11.318Z,99.9
2022-08-19T21:53:41.340Z,99.9
2022-08-19T21:56:11.359Z,99.9
2022-08-19T22:01:11.498Z,99.9
2022-08-19T22:03:41.429Z,99.9
2022-08-19T22:06:11.449Z,99.9
2022-08-19T22:08:41.480Z,99.9
2022-08-19T22:11:12.069Z,99.9
2022-08-19T22:13:41.516Z,99.9
2022-08-19T22:18:41.559Z,99.9
2022-08-19T22:21:12.380Z,99.9
2022-08-19T22:23:41.645Z,99.9
2022-08-19T22:26:11.642Z,99.9
2022-08-19T22:28:41.650Z,99.9
2022-08-19T22:31:11.687Z,99.9
2022-08-19T22:33:41.697Z,99.9
2022-08-19T22:38:41.741Z,99.9
2022-08-19T22:41:11.769Z,99.9
2022-08-19T22:43:41.787Z,99.9
2022-08-19T22:48:41.850Z,99.9
2022-08-19T22:51:11.863Z,99.9
2022-08-19T22:53:41.902Z,99.9
2022-08-19T22:56:15.131Z,99.9
2022-08-19T22:58:41.930Z,99.9
2022-08-19T23:01:14.642Z,99.9
2022-08-19T23:03:41.984Z,99.9
2022-08-19T23:06:12.018Z,99.9
2022-08-19T23:08:42.034Z,99.9
2022-08-19T23:11:12.085Z,99.9
2022-08-19T23:13:42.075Z,99.9
2022-08-19T23:16:12.105Z,99.9
2022-08-19T23:18:42.125Z,99.9
2022-08-19T23:21:12.145Z,99.9
2022-08-19T23:23:42.175Z,99.9
2022-08-19T23:26:12.183Z,99.9
2022-08-19T23:28:42.243Z,99.9
2022-08-19T23:31:12.241Z,99.9
2022-08-19T23:33:51.062Z,99.9
2022-08-19T23:38:42.313Z,99.9
2022-08-19T23:41:12.329Z,99.9
2022-08-19T23:43:42.366Z,99.9
2022-08-19T23:48:42.403Z,99.9
2022-08-19T23:51:12.434Z,99.9
2022-08-19T23:53:42.452Z,99.9
2022-08-19T23:56:12.476Z,99.9
